EGNX Información de aeropuertos

Información de pistas
Pista 09 Longitud 9491 ft Ancho 151 ft
Elevación 306 ft Umbral 590 ft Rumbo 88
Pista 27 Longitud 9491 ft Ancho 151 ft
Elevación 282 ft Umbral 426 ft Rumbo 268
Frecuencias
Tipo APP Nombre APP Frequencia 134.175 MHZ
Tipo ATIS Nombre ATIS Frequencia 128.225 MHZ
Tipo Fire servi Nombre Frequencia 121.6 MHZ
Tipo GND Nombre GND Frequencia 121.9 MHZ
Tipo TWR Nombre TWR Frequencia 124 MHZ
Radioayudas
Información meteorológica y NOTAM
ADDS - METARS form results

(0344 UTC 20 January 2021)
Data provider http://aviationweather.gov/metar/data/
 
METAR text: EGNX 200320Z 21018KT 9999 -RA FEW034 11/09 Q0987 RERA
Conditions at: EGNX (EAST MIDLANDS , GB) observed 0320 UTC 20 January 2021
Temperature: 11.0°C (52°F)
Dewpoint: 9.0°C (48°F) [RH = 87%]
Pressure (altimeter): 29.14 inches Hg (987.0 mb)
Winds: from the SSW (210 degrees) at 21 MPH (18 knots; 9.3 m/s)
Visibility: 6 or more miles (10+ km)
Ceiling: at least 12,000 feet AGL
Clouds: few clouds at 3400 feet AGL
Weather: -RA  (light rain)

METAR text: EGNX 200250Z 21020KT 9999 RA FEW011 11/09 Q0987
Conditions at: EGNX (EAST MIDLANDS , GB) observed 0250 UTC 20 January 2021
Temperature: 11.0°C (52°F)
Dewpoint: 9.0°C (48°F) [RH = 87%]
Pressure (altimeter): 29.14 inches Hg (987.0 mb)
Winds: from the SSW (210 degrees) at 23 MPH (20 knots; 10.3 m/s)
Visibility: 6 or more miles (10+ km)
Ceiling: at least 12,000 feet AGL
Clouds: few clouds at 1100 feet AGL
Weather: RA  (moderate rain)

Forecast for: EGNX (EAST MIDLANDS , GB)
Text: TAF EGNX 192255Z 2000/2024 21019G31KT 9999 BKN015
Forecast period: 0000 to 2000 UTC 20 January 2021
Forecast type: FROM: standard forecast or significant change
Winds: from the SSW (210 degrees) at 22 MPH (19 knots; 9.8 m/s)
gusting to 36 MPH (31 knots; 15.9 m/s)
Visibility: 6 or more miles (10+ km)
Ceiling: 1500 feet AGL
Clouds: broken clouds at 1500 feet AGL
Weather: no significant weather forecast for this period
Text: TEMPO 2000/2024 6000 RA BKN010
Forecast period: 0000 UTC 20 January 2021 to 0000 UTC 21 January 2021
Forecast type: TEMPORARY: The following changes expected for less than half the time period
Visibility: 4 miles (6 km)
Ceiling: 1000 feet AGL
Clouds: broken clouds at 1000 feet AGL
Weather: RA  (moderate rain)
Text: PROB30
Forecast period: 0000 UTC 20 January 2021 to 0000 UTC 21 January 2021
Forecast type: TEMPORARY: The following changes expected for less than half the time period
Visibility: 2.49 miles (4.01 km)
Ceiling: 600 feet AGL
Clouds: broken clouds at 600 feet AGL
Weather: +RA  (heavy rain)
Text: TEMPO 2000/2024 4000 +RA BKN006
Forecast period: 2000 UTC 20 January 2021 to 0000 UTC 21 January 2021
Forecast type: BECOMING: Conditions expected to become as follows by 2300 UTC 20 January 2021
Winds: from the W (270 degrees) at 14 MPH (12 knots; 6.2 m/s)
Visibility: 6 or more miles (10+ km)
Ceiling: 1500 feet AGL
Clouds: broken clouds at 1500 feet AGL
Weather: no significant weather forecast for this period